Time;durP1;ratioP1;P1;durP2;ratioP2;P2;SDS_P1;SDS_P2;PMS_P1;PMS_P2;Temp;Humidity;BMP_temperature;BMP_pressure;BME280_temperature;BME280_humidity;BME280_pressure;Samples;Min_cycle;Max_cycle;Signal;HPM_P1;HPM_P2
2021/11/03 05:34:25;;;;;;;10.85;6.43;;;;;;;;;;3848157;37;20098;-61
2021/11/03 05:36:51;;;;;;;10.23;5.90;;;;;;;;;;4404194;32;20097;-62
2021/11/03 05:39:17;;;;;;;9.82;6.05;;;;;;;;;;4406723;32;20109;-62
2021/11/03 05:41:44;;;;;;;11.43;6.60;;;;;;;;;;4419892;32;20105;-63
2021/11/03 05:44:12;;;;;;;17.35;6.97;;;;;;;;;;4419796;32;20107;-62
2021/11/03 05:46:44;;;;;;;12.88;6.55;;;;;;;;;;4405422;32;20204;-62
2021/11/03 05:49:11;;;;;;;12.82;6.35;;;;;;;;;;4405495;32;20109;-63
2021/11/03 05:51:38;;;;;;;11.05;5.90;;;;;;;;;;4419302;32;20600;-62
2021/11/03 05:54:04;;;;;;;17.35;5.70;;;;;;;;;;4404994;32;20082;-61
2021/11/03 05:56:31;;;;;;;10.20;6.20;;;;;;;;;;4404229;32;20407;-62
2021/11/03 05:58:58;;;;;;;12.68;5.18;;;;;;;;;;4419120;32;20105;-61
2021/11/03 06:01:24;;;;;;;10.52;5.60;;;;;;;;;;4408959;32;20107;-62
2021/11/03 06:03:52;;;;;;;15.45;5.87;;;;;;;;;;4401597;32;20140;-62
2021/11/03 06:06:19;;;;;;;11.38;6.60;;;;;;;;;;4418851;32;20160;-62
2021/11/03 06:08:45;;;;;;;15.95;6.53;;;;;;;;;;4419184;32;20542;-62
2021/11/03 06:11:14;;;;;;;17.27;6.60;;;;;;;;;;4405866;32;20089;-62
2021/11/03 06:13:41;;;;;;;15.00;7.03;;;;;;;;;;4405376;32;20085;-62
2021/11/03 06:16:07;;;;;;;8.20;5.85;;;;;;;;;;4414057;32;20641;-61
2021/11/03 06:18:33;;;;;;;10.57;6.87;;;;;;;;;;4419132;32;20117;-62
2021/11/03 06:20:59;;;;;;;12.48;6.25;;;;;;;;;;4419125;32;20139;-60
2021/11/03 06:23:25;;;;;;;14.18;7.07;;;;;;;;;;4419044;32;20224;-61
2021/11/03 06:25:51;;;;;;;10.82;5.87;;;;;;;;;;4417183;32;20111;-61
2021/11/03 06:28:18;;;;;;;13.43;6.57;;;;;;;;;;4405198;32;20148;-62
2021/11/03 06:30:44;;;;;;;15.20;7.07;;;;;;;;;;4415064;32;20136;-63
2021/11/03 06:33:10;;;;;;;9.95;6.18;;;;;;;;;;4419038;32;20456;-62
2021/11/03 06:35:36;;;;;;;11.00;5.82;;;;;;;;;;4404929;32;20221;-62
2021/11/03 06:38:03;;;;;;;10.38;6.60;;;;;;;;;;4404701;32;20102;-62
2021/11/03 06:40:29;;;;;;;8.98;5.90;;;;;;;;;;4417410;32;20133;-62
2021/11/03 06:42:55;;;;;;;12.70;6.97;;;;;;;;;;4419232;32;20802;-63
2021/11/03 06:45:22;;;;;;;10.63;5.87;;;;;;;;;;4409208;32;20512;-62
2021/11/03 06:47:48;;;;;;;11.32;5.60;;;;;;;;;;4408526;32;20116;-62
2021/11/03 06:50:16;;;;;;;6.85;4.55;;;;;;;;;;4408442;32;20534;-62
2021/11/03 06:52:43;;;;;;;12.57;5.05;;;;;;;;;;4397896;32;20097;-62
2021/11/03 06:55:09;;;;;;;13.95;5.18;;;;;;;;;;4397173;32;20136;-62
2021/11/03 06:57:35;;;;;;;7.40;4.43;;;;;;;;;;4393598;32;20543;-62
2021/11/03 07:00:02;;;;;;;14.60;5.40;;;;;;;;;;4403772;32;20676;-62
2021/11/03 07:02:28;;;;;;;7.57;4.68;;;;;;;;;;4408460;32;20218;-62
2021/11/03 07:04:53;;;;;;;6.20;4.72;;;;;;;;;;4406939;32;20140;-61
2021/11/03 07:07:19;;;;;;;8.10;4.30;;;;;;;;;;4408616;32;20229;-61
2021/11/03 07:09:45;;;;;;;5.87;4.53;;;;;;;;;;4408512;32;20117;-62
2021/11/03 07:12:11;;;;;;;5.12;3.85;;;;;;;;;;4408265;32;20112;-62
2021/11/03 07:14:37;;;;;;;8.23;4.00;;;;;;;;;;4395204;32;20109;-61
2021/11/03 07:17:03;;;;;;;10.77;5.37;;;;;;;;;;4395155;32;20089;-61
2021/11/03 07:19:29;;;;;;;14.38;4.82;;;;;;;;;;4393321;32;20115;-59
2021/11/03 07:21:56;;;;;;;7.37;4.00;;;;;;;;;;4392095;32;20101;-61
2021/11/03 07:24:22;;;;;;;6.15;4.15;;;;;;;;;;4393157;32;20101;-61
2021/11/03 07:26:48;;;;;;;7.75;4.60;;;;;;;;;;4392869;32;20508;-61
2021/11/03 07:29:14;;;;;;;8.82;4.47;;;;;;;;;;4393160;32;20506;-62
2021/11/03 07:31:39;;;;;;;7.93;4.22;;;;;;;;;;4393420;32;20134;-61
2021/11/03 07:34:05;;;;;;;11.20;5.20;;;;;;;;;;4402768;32;20124;-61
2021/11/03 07:36:32;;;;;;;9.68;4.35;;;;;;;;;;4397975;32;20204;-60
2021/11/03 07:38:58;;;;;;;13.23;5.72;;;;;;;;;;4394912;32;20473;-59
2021/11/03 07:41:24;;;;;;;11.50;6.20;;;;;;;;;;4391649;32;20117;-61
2021/11/03 07:43:50;;;;;;;8.65;5.55;;;;;;;;;;4393226;32;20121;-61
2021/11/03 07:46:17;;;;;;;6.87;5.05;;;;;;;;;;4392768;32;20140;-60
2021/11/03 07:48:43;;;;;;;8.80;4.78;;;;;;;;;;4393045;32;20200;-60
2021/11/03 07:51:12;;;;;;;6.95;4.15;;;;;;;;;;4399910;32;20116;-60
2021/11/03 07:53:38;;;;;;;7.30;3.87;;;;;;;;;;4392071;32;20202;-61
2021/11/03 07:56:07;;;;;;;6.15;3.78;;;;;;;;;;4404560;32;20492;-61
2021/11/03 07:58:35;;;;;;;7.55;3.95;;;;;;;;;;4408066;32;20483;-62
2021/11/03 08:01:01;;;;;;;10.45;4.10;;;;;;;;;;4394765;32;20103;-63
2021/11/03 08:03:27;;;;;;;12.23;4.55;;;;;;;;;;4391581;32;20094;-62
2021/11/03 08:05:53;;;;;;;13.45;5.62;;;;;;;;;;4392464;32;20098;-62
2021/11/03 08:08:22;;;;;;;7.87;3.83;;;;;;;;;;4392320;32;20537;-61
2021/11/03 08:10:49;;;;;;;5.05;3.60;;;;;;;;;;4378758;32;20109;-61
2021/11/03 08:13:17;;;;;;;6.87;3.80;;;;;;;;;;4392500;32;20093;-61
2021/11/03 08:15:48;;;;;;;8.57;3.97;;;;;;;;;;4401014;32;20089;-61
2021/11/03 08:18:14;;;;;;;7.95;4.95;;;;;;;;;;4406257;32;20117;-62
2021/11/03 08:20:41;;;;;;;12.55;4.65;;;;;;;;;;4406283;32;20132;-62
2021/11/03 08:23:07;;;;;;;6.87;3.95;;;;;;;;;;4393562;32;20113;-63
2021/11/03 08:25:33;;;;;;;8.68;4.00;;;;;;;;;;4407675;32;20459;-62
2021/11/03 08:27:59;;;;;;;6.82;3.83;;;;;;;;;;4407270;32;20108;-62
2021/11/03 08:30:25;;;;;;;9.38;4.28;;;;;;;;;;4407780;32;20180;-62
2021/11/03 08:33:15;;;;;;;6.43;4.55;;;;;;;;;;4407438;32;20112;-62
2021/11/03 08:35:43;;;;;;;11.98;5.35;;;;;;;;;;4406485;32;20496;-62
2021/11/03 08:38:09;;;;;;;6.35;4.72;;;;;;;;;;4406139;32;20093;-62
2021/11/03 08:40:35;;;;;;;10.88;4.35;;;;;;;;;;4393244;32;20116;-62
2021/11/03 08:43:03;;;;;;;7.65;3.65;;;;;;;;;;4407558;32;20129;-62
2021/11/03 08:45:29;;;;;;;6.07;3.78;;;;;;;;;;4407769;32;20124;-63
2021/11/03 08:47:55;;;;;;;8.10;4.60;;;;;;;;;;4407276;32;20120;-63
2021/11/03 08:50:23;;;;;;;6.72;4.10;;;;;;;;;;4406012;32;20123;-62
2021/11/03 08:52:49;;;;;;;6.32;3.75;;;;;;;;;;4405885;32;20101;-62
2021/11/03 08:55:15;;;;;;;8.23;4.47;;;;;;;;;;4399077;32;20117;-62
2021/11/03 08:57:41;;;;;;;10.90;4.60;;;;;;;;;;4392022;32;20129;-62
2021/11/03 09:00:12;;;;;;;6.90;4.20;;;;;;;;;;4390657;32;20124;-62
2021/11/03 09:02:38;;;;;;;9.98;4.32;;;;;;;;;;4392095;32;20199;-62
2021/11/03 09:05:04;;;;;;;8.70;3.60;;;;;;;;;;4391584;32;20113;-61
2021/11/03 09:07:32;;;;;;;7.65;3.80;;;;;;;;;;4390231;32;20212;-59
2021/11/03 09:10:00;;;;;;;5.25;3.72;;;;;;;;;;4392066;32;20109;-60
2021/11/03 09:12:25;;;;;;;11.63;4.40;;;;;;;;;;4391955;32;20192;-62
2021/11/03 09:14:51;;;;;;;7.03;4.25;;;;;;;;;;4392204;32;20224;-61
2021/11/03 09:17:17;;;;;;;6.50;4.30;;;;;;;;;;4391534;32;20110;-61
2021/11/03 09:19:43;;;;;;;11.52;4.82;;;;;;;;;;4393936;32;20108;-61
2021/11/03 09:22:09;;;;;;;7.57;4.60;;;;;;;;;;4407160;32;20186;-59
2021/11/03 09:24:35;;;;;;;5.18;3.47;;;;;;;;;;4407011;32;20194;-59
2021/11/03 09:27:05;;;;;;;9.50;4.22;;;;;;;;;;4405458;32;20306;-58
2021/11/03 09:29:34;;;;;;;6.93;3.58;;;;;;;;;;4406687;32;20479;-58
2021/11/03 09:31:59;;;;;;;5.20;3.20;;;;;;;;;;4406983;32;20109;-58
2021/11/03 09:34:25;;;;;;;7.65;3.72;;;;;;;;;;4407097;32;20222;-58
2021/11/03 09:36:52;;;;;;;6.85;3.58;;;;;;;;;;4407086;32;20127;-61
2021/11/03 09:39:20;;;;;;;15.38;5.62;;;;;;;;;;4406842;32;20112;-59
2021/11/03 09:41:49;;;;;;;6.18;3.50;;;;;;;;;;4391924;32;20128;-60
2021/11/03 09:44:23;;;;;;;5.82;3.20;;;;;;;;;;4405694;32;20109;-59
2021/11/03 09:47:12;;;;;;;5.50;3.40;;;;;;;;;;4406137;32;20217;-60
2021/11/03 09:49:40;;;;;;;6.20;4.05;;;;;;;;;;4406585;32;20611;-60
2021/11/03 09:52:19;;;;;;;6.45;5.20;;;;;;;;;;4403680;32;20615;-60
2021/11/03 09:54:48;;;;;;;7.68;3.72;;;;;;;;;;4390382;32;20113;-60
2021/11/03 09:57:28;;;;;;;9.00;3.40;;;;;;;;;;4391688;32;20137;-61
2021/11/03 10:00:13;;;;;;;8.52;4.05;;;;;;;;;;4390412;32;20153;-59
2021/11/03 10:03:13;;;;;;;4.10;3.47;;;;;;;;;;4390141;32;20513;-59
2021/11/03 10:05:59;;;;;;;7.30;3.78;;;;;;;;;;4390121;32;20093;-60
2021/11/03 10:08:27;;;;;;;6.55;4.00;;;;;;;;;;4390018;32;20185;-60
2021/11/03 10:10:56;;;;;;;4.72;3.75;;;;;;;;;;4377431;32;20116;-60
2021/11/03 10:13:23;;;;;;;10.32;4.18;;;;;;;;;;4391742;32;20109;-60
2021/11/03 10:15:54;;;;;;;6.97;3.95;;;;;;;;;;4391496;32;20236;-60
2021/11/03 10:18:20;;;;;;;5.65;3.83;;;;;;;;;;4389584;32;20660;-60
2021/11/03 10:21:08;;;;;;;6.90;3.85;;;;;;;;;;4393271;32;20176;-60
2021/11/03 10:23:34;;;;;;;6.78;3.85;;;;;;;;;;4387458;32;20267;-60
2021/11/03 10:26:09;;;;;;;6.82;3.72;;;;;;;;;;4403390;32;20504;-60
2021/11/03 10:28:40;;;;;;;8.63;3.65;;;;;;;;;;4395283;32;20196;-60
2021/11/03 10:31:31;;;;;;;7.18;3.00;;;;;;;;;;4408799;32;20500;-60
2021/11/03 10:34:03;;;;;;;11.60;4.15;;;;;;;;;;4407501;32;20119;-60
2021/11/03 10:36:44;;;;;;;6.47;3.50;;;;;;;;;;4407161;32;20117;-60
2021/11/03 10:39:19;;;;;;;9.32;4.07;;;;;;;;;;4408954;32;20177;-61
2021/11/03 10:41:52;;;;;;;;;;;;;;;;;;4407202;32;20115;-61
2021/11/03 10:44:21;;;;;;;8.75;4.37;;;;;;;;;;4408359;32;20073;-60
2021/11/03 10:46:58;;;;;;;6.68;4.62;;;;;;;;;;4405897;32;20436;-60
2021/11/03 10:49:34;;;;;;;6.25;4.53;;;;;;;;;;4406994;32;20204;-61
2021/11/03 10:52:07;;;;;;;6.62;5.03;;;;;;;;;;4406605;32;20136;-61
2021/11/03 10:54:49;;;;;;;6.80;3.45;;;;;;;;;;4390660;32;20196;-60
2021/11/03 10:57:22;;;;;;;11.35;4.45;;;;;;;;;;4390397;32;20184;-60
2021/11/03 10:59:59;;;;;;;5.68;4.00;;;;;;;;;;4393552;32;20433;-61
2021/11/03 11:02:28;;;;;;;10.48;4.65;;;;;;;;;;4393578;32;20285;-61
2021/11/03 11:04:55;;;;;;;12.30;4.75;;;;;;;;;;4406712;32;20124;-60
2021/11/03 11:07:32;;;;;;;6.40;4.78;;;;;;;;;;4406658;32;20172;-60
2021/11/03 11:10:20;;;;;;;8.18;5.32;;;;;;;;;;4406929;32;20177;-60
2021/11/03 11:12:47;;;;;;;7.80;5.25;;;;;;;;;;4394914;32;20113;-61
2021/11/03 11:15:14;;;;;;;11.32;5.60;;;;;;;;;;4406960;32;20210;-61
2021/11/03 11:18:01;;;;;;;4.65;3.40;;;;;;;;;;4408105;32;20124;-61
2021/11/03 11:20:29;;;;;;;9.13;3.83;;;;;;;;;;4406740;32;20468;-60
2021/11/03 11:23:04;;;;;;;10.38;4.30;;;;;;;;;;4406755;32;20143;-61
2021/11/03 11:26:16;;;;;;;6.43;4.50;;;;;;;;;;4406890;32;20115;-60
2021/11/03 11:28:53;;;;;;;8.45;4.72;;;;;;;;;;4345618;33;20215;-61
2021/11/03 11:31:31;;;;;;;13.38;4.65;;;;;;;;;;4390606;32;20120;-61
2021/11/03 11:34:12;;;;;;;12.77;6.93;;;;;;;;;;4406714;32;20184;-61
2021/11/03 11:36:43;;;;;;;12.40;6.32;;;;;;;;;;4408251;32;20204;-61
2021/11/03 11:39:18;;;;;;;24.10;12.80;;;;;;;;;;4394962;32;20200;-61
2021/11/03 11:42:22;;;;;;;25.08;14.25;;;;;;;;;;4407095;32;20188;-60
2021/11/03 11:45:00;;;;;;;16.37;9.57;;;;;;;;;;4392116;32;20121;-62
2021/11/03 11:47:40;;;;;;;10.73;8.10;;;;;;;;;;4391370;32;20098;-61
2021/11/03 11:50:38;;;;;;;12.88;6.00;;;;;;;;;;4391837;32;20109;-62
2021/11/03 11:53:23;;;;;;;10.95;5.75;;;;;;;;;;4401050;32;20188;-62
2021/11/03 11:56:08;;;;;;;8.25;5.35;;;;;;;;;;4395831;32;20456;-61
2021/11/03 11:58:42;;;;;;;12.63;6.97;;;;;;;;;;4392979;32;20161;-62
2021/11/03 12:01:26;;;;;;;8.60;5.93;;;;;;;;;;4391503;32;20182;-61
2021/11/03 12:04:00;;;;;;;13.03;7.13;;;;;;;;;;4392965;32;20129;-62
2021/11/03 12:06:51;;;;;;;10.55;5.93;;;;;;;;;;4392396;32;20089;-62
2021/11/03 12:09:17;;;;;;;8.35;5.62;;;;;;;;;;4392896;32;20275;-60
2021/11/03 12:11:59;;;;;;;10.55;5.65;;;;;;;;;;4392586;32;20113;-60
2021/11/03 12:14:31;;;;;;;9.00;4.62;;;;;;;;;;4392484;32;20181;-61
2021/11/03 12:17:09;;;;;;;8.60;4.93;;;;;;;;;;4392420;32;20117;-61
2021/11/03 12:19:38;;;;;;;15.63;6.20;;;;;;;;;;4392408;32;20114;-61
2021/11/03 12:22:29;;;;;;;8.70;6.25;;;;;;;;;;4392675;32;20212;-61
2021/11/03 12:25:13;;;;;;;14.82;6.97;;;;;;;;;;4392507;32;20120;-61
2021/11/03 12:27:39;;;;;;;10.00;5.80;;;;;;;;;;4392504;32;20463;-61
2021/11/03 12:30:08;;;;;;;12.40;5.90;;;;;;;;;;4395624;32;20097;-60
2021/11/03 12:32:43;;;;;;;12.23;6.70;;;;;;;;;;4407306;32;20273;-60
2021/11/03 12:35:18;;;;;;;10.50;7.15;;;;;;;;;;4407982;32;20201;-60
2021/11/03 12:38:16;;;;;;;10.27;6.15;;;;;;;;;;4407568;32;20193;-61
2021/11/03 12:40:44;;;;;;;7.68;5.90;;;;;;;;;;4401729;32;20525;-60
2021/11/03 12:43:13;;;;;;;12.95;7.18;;;;;;;;;;4406992;32;20540;-60
2021/11/03 12:45:49;;;;;;;15.52;6.45;;;;;;;;;;4407796;32;20267;-61
2021/11/03 12:48:29;;;;;;;14.52;6.78;;;;;;;;;;4394272;32;20155;-62
2021/11/03 12:50:55;;;;;;;16.20;7.62;;;;;;;;;;4405859;32;20464;-62
2021/11/03 12:53:22;;;;;;;11.40;6.10;;;;;;;;;;4389712;32;20101;-62
2021/11/03 12:56:25;;;;;;;12.63;6.03;;;;;;;;;;4402218;32;20101;-60
2021/11/03 12:58:56;;;;;;;9.35;4.93;;;;;;;;;;4367074;32;20164;-60
2021/11/03 13:01:24;;;;;;;8.00;5.10;;;;;;;;;;4407509;32;20089;-61
2021/11/03 13:03:57;;;;;;;16.10;5.80;;;;;;;;;;4407284;32;20101;-60
2021/11/03 13:06:27;;;;;;;12.15;6.45;;;;;;;;;;4405624;32;20107;-62
2021/11/03 13:08:53;;;;;;;20.90;6.65;;;;;;;;;;4405612;32;20168;-63
2021/11/03 13:11:33;;;;;;;10.90;5.95;;;;;;;;;;4391199;32;20178;-61
2021/11/03 13:14:01;;;;;;;11.38;5.95;;;;;;;;;;4391006;32;20176;-60
2021/11/03 13:16:33;;;;;;;11.88;6.00;;;;;;;;;;4404014;32;20188;-61
2021/11/03 13:18:59;;;;;;;11.27;5.32;;;;;;;;;;4407567;32;20608;-60
2021/11/03 13:21:30;;;;;;;11.93;6.60;;;;;;;;;;4407067;32;20507;-61
2021/11/03 13:24:18;;;;;;;10.02;5.43;;;;;;;;;;4407307;32;20224;-62
2021/11/03 13:26:44;;;;;;;12.32;5.95;;;;;;;;;;4407143;32;20112;-63
2021/11/03 13:29:27;;;;;;;14.07;5.90;;;;;;;;;;4393445;32;20106;-60
2021/11/03 13:32:17;;;;;;;7.85;5.70;;;;;;;;;;4394086;32;20127;-60
2021/11/03 13:35:06;;;;;;;11.75;5.87;;;;;;;;;;4405784;32;20160;-65
2021/11/03 13:37:37;;;;;;;12.40;7.28;;;;;;;;;;4399308;32;20132;-67
2021/11/03 13:40:18;;;;;;;15.25;6.68;;;;;;;;;;4391041;32;20520;-64
2021/11/03 13:42:44;;;;;;;14.10;5.37;;;;;;;;;;4391928;32;20113;-63
2021/11/03 13:45:44;;;;;;;14.55;5.78;;;;;;;;;;4396260;32;20096;-65
2021/11/03 13:48:13;;;;;;;11.77;5.35;;;;;;;;;;4391779;32;20132;-64
2021/11/03 13:50:48;;;;;;;9.13;5.00;;;;;;;;;;4406949;32;20198;-64
2021/11/03 13:53:14;;;;;;;7.05;4.20;;;;;;;;;;4405858;32;20553;-64
2021/11/03 13:55:58;;;;;;;8.52;3.70;;;;;;;;;;4398672;32;20098;-63
2021/11/03 13:58:27;;;;;;;14.05;4.32;;;;;;;;;;4393624;32;20124;-63
2021/11/03 14:01:00;;;;;;;11.55;5.70;;;;;;;;;;4402848;32;20555;-61
2021/11/03 14:04:00;;;;;;;11.45;3.90;;;;;;;;;;4409218;32;20090;-62
2021/11/03 14:06:29;;;;;;;10.65;4.22;;;;;;;;;;4394817;32;20121;-61
2021/11/03 14:08:56;;;;;;;9.73;3.70;;;;;;;;;;4393514;32;20123;-61
2021/11/03 14:11:24;;;;;;;6.18;3.60;;;;;;;;;;4406046;32;20124;-61
2021/11/03 14:13:50;;;;;;;9.63;4.35;;;;;;;;;;4407468;32;20225;-62
2021/11/03 14:16:23;;;;;;;9.40;3.70;;;;;;;;;;4408904;32;20198;-60
2021/11/03 14:18:52;;;;;;;11.77;4.60;;;;;;;;;;4409127;32;20111;-62
2021/11/03 14:21:19;;;;;;;6.50;3.78;;;;;;;;;;4407014;32;20113;-63
2021/11/03 14:23:45;;;;;;;12.50;3.40;;;;;;;;;;4407294;32;20121;-64
2021/11/03 14:26:11;;;;;;;10.20;3.00;;;;;;;;;;4408688;32;20428;-65
2021/11/03 14:28:38;;;;;;;9.02;5.05;;;;;;;;;;4394951;32;20583;-65
2021/11/03 14:31:21;;;;;;;16.02;5.12;;;;;;;;;;4408881;32;20093;-65
2021/11/03 14:33:47;;;;;;;9.70;4.15;;;;;;;;;;4407129;32;20108;-64
2021/11/03 14:36:15;;;;;;;9.93;4.68;;;;;;;;;;4407088;32;20105;-64
2021/11/03 14:38:41;;;;;;;6.40;4.00;;;;;;;;;;4408764;32;20108;-63
2021/11/03 14:41:10;;;;;;;6.68;3.92;;;;;;;;;;4402773;32;20117;-63
2021/11/03 14:43:38;;;;;;;5.70;3.37;;;;;;;;;;4394861;32;20208;-64
2021/11/03 14:46:24;;;;;;;5.37;3.80;;;;;;;;;;4406923;32;20133;-63
2021/11/03 14:48:50;;;;;;;8.65;3.67;;;;;;;;;;4399029;32;20172;-62
2021/11/03 14:51:17;;;;;;;6.65;3.10;;;;;;;;;;4403509;32;20110;-63
2021/11/03 14:53:43;;;;;;;6.80;3.00;;;;;;;;;;4393276;32;20098;-63
2021/11/03 14:56:09;;;;;;;7.32;2.67;;;;;;;;;;4403189;32;20152;-65
2021/11/03 14:58:36;;;;;;;12.73;4.78;;;;;;;;;;4391876;32;20132;-63
2021/11/03 15:01:08;;;;;;;6.37;2.78;;;;;;;;;;4402103;32;20515;-62
2021/11/03 15:03:36;;;;;;;11.02;2.60;;;;;;;;;;4395204;32;20112;-63
2021/11/03 15:06:05;;;;;;;5.47;2.75;;;;;;;;;;4384404;32;20253;-63
2021/11/03 15:08:33;;;;;;;8.88;3.12;;;;;;;;;;4392172;32;20216;-65
2021/11/03 15:11:05;;;;;;;8.15;3.83;;;;;;;;;;4379321;32;20125;-62
2021/11/03 15:13:31;;;;;;;11.23;6.00;;;;;;;;;;4394265;32;20096;-64
2021/11/03 15:15:59;;;;;;;15.68;5.03;;;;;;;;;;4389680;32;20085;-64
2021/11/03 15:18:27;;;;;;;9.85;4.43;;;;;;;;;;4408847;32;20187;-63
2021/11/03 15:20:53;;;;;;;9.00;5.43;;;;;;;;;;4399321;32;20508;-64
2021/11/03 15:23:23;;;;;;;10.00;5.93;;;;;;;;;;4393173;32;20131;-63
2021/11/03 15:25:49;;;;;;;9.48;5.10;;;;;;;;;;4401607;32;20200;-64
2021/11/03 15:28:15;;;;;;;7.97;3.85;;;;;;;;;;4408523;32;20109;-64
2021/11/03 15:30:41;;;;;;;7.62;3.15;;;;;;;;;;4406796;32;20120;-60
2021/11/03 15:33:13;;;;;;;6.43;3.58;;;;;;;;;;4406773;32;20112;-64
2021/11/03 15:35:40;;;;;;;4.80;2.70;;;;;;;;;;4391319;32;20114;-64
2021/11/03 15:38:15;;;;;;;6.35;2.60;;;;;;;;;;4393153;32;20213;-63
2021/11/03 15:40:42;;;;;;;6.12;2.80;;;;;;;;;;4397779;32;20208;-63
2021/11/03 15:43:10;;;;;;;13.77;2.53;;;;;;;;;;4393514;32;20100;-63
2021/11/03 15:45:36;;;;;;;10.95;2.10;;;;;;;;;;4386147;32;20186;-64
2021/11/03 15:48:02;;;;;;;7.30;2.58;;;;;;;;;;4407029;32;20112;-64
2021/11/03 15:50:30;;;;;;;6.28;2.50;;;;;;;;;;4399379;32;20097;-63
2021/11/03 15:52:58;;;;;;;3.47;2.45;;;;;;;;;;4390757;32;20125;-65
2021/11/03 15:55:25;;;;;;;10.38;3.20;;;;;;;;;;4395712;32;20084;-63
2021/11/03 15:57:51;;;;;;;3.67;2.47;;;;;;;;;;4405778;32;20124;-64
2021/11/03 16:00:18;;;;;;;6.80;2.70;;;;;;;;;;4407837;32;20188;-64
2021/11/03 16:02:46;;;;;;;6.72;2.20;;;;;;;;;;4406785;32;20537;-66
2021/11/03 16:05:24;;;;;;;4.53;2.05;;;;;;;;;;4391262;32;20468;-64
2021/11/03 16:07:50;;;;;;;6.55;2.22;;;;;;;;;;4378920;32;20138;-64
2021/11/03 16:10:31;;;;;;;7.20;3.10;;;;;;;;;;4397470;32;20192;-63
2021/11/03 16:12:57;;;;;;;5.62;3.12;;;;;;;;;;4408057;32;20109;-64
2021/11/03 16:15:23;;;;;;;7.57;3.17;;;;;;;;;;4403401;32;20100;-66
2021/11/03 16:17:49;;;;;;;6.12;3.08;;;;;;;;;;4390321;32;20586;-65
2021/11/03 16:20:16;;;;;;;8.82;2.83;;;;;;;;;;4383319;32;20538;-64
2021/11/03 16:22:45;;;;;;;6.37;2.58;;;;;;;;;;4407697;32;20117;-64
2021/11/03 16:25:20;;;;;;;5.87;2.35;;;;;;;;;;4402811;32;20102;-65
2021/11/03 16:27:47;;;;;;;6.93;2.42;;;;;;;;;;4392712;32;20660;-65
2021/11/03 16:30:22;;;;;;;8.25;2.60;;;;;;;;;;4391075;32;20452;-63
2021/11/03 16:32:48;;;;;;;12.00;3.33;;;;;;;;;;4391002;32;20108;-64
2021/11/03 16:35:14;;;;;;;5.87;3.65;;;;;;;;;;4395398;32;20105;-66
2021/11/03 16:37:40;;;;;;;4.78;2.97;;;;;;;;;;4407563;32;20112;-63
2021/11/03 16:40:07;;;;;;;11.10;3.70;;;;;;;;;;4407624;32;20110;-62
2021/11/03 16:42:38;;;;;;;11.73;4.40;;;;;;;;;;4400950;32;20116;-62
2021/11/03 16:45:16;;;;;;;8.75;3.53;;;;;;;;;;4394196;32;20463;-63
2021/11/03 16:47:47;;;;;;;11.07;4.40;;;;;;;;;;4407725;32;20598;-65
2021/11/03 16:50:14;;;;;;;8.45;4.57;;;;;;;;;;4402206;32;20117;-64
2021/11/03 16:52:40;;;;;;;8.77;2.92;;;;;;;;;;4397119;32;20136;-62
2021/11/03 16:55:07;;;;;;;8.95;3.20;;;;;;;;;;4403322;32;20105;-64
2021/11/03 16:57:33;;;;;;;7.50;2.47;;;;;;;;;;4392640;32;20128;-62
2021/11/03 16:59:58;;;;;;;3.67;2.22;;;;;;;;;;4392065;32;20090;-63
2021/11/03 17:02:24;;;;;;;4.25;1.92;;;;;;;;;;4392519;32;20132;-62
2021/11/03 17:04:51;;;;;;;8.00;2.40;;;;;;;;;;4390543;32;20479;-64
2021/11/03 17:07:17;;;;;;;4.43;2.50;;;;;;;;;;4392135;32;20100;-63
2021/11/03 17:09:43;;;;;;;5.22;2.30;;;;;;;;;;4378270;32;20117;-63
2021/11/03 17:12:19;;;;;;;4.15;2.25;;;;;;;;;;4393082;32;20097;-63
2021/11/03 17:14:45;;;;;;;10.48;2.22;;;;;;;;;;4390799;32;20120;-63
2021/11/03 17:17:11;;;;;;;5.07;2.25;;;;;;;;;;4392342;32;20152;-62
2021/11/03 17:19:37;;;;;;;10.18;2.20;;;;;;;;;;4392234;32;20125;-65
2021/11/03 17:22:04;;;;;;;9.68;2.08;;;;;;;;;;4392226;32;20583;-63
2021/11/03 17:24:31;;;;;;;5.05;2.08;;;;;;;;;;4392276;32;20206;-64
2021/11/03 17:27:07;;;;;;;4.82;2.58;;;;;;;;;;4405034;32;20124;-63
2021/11/03 17:29:35;;;;;;;8.70;2.83;;;;;;;;;;4394187;32;20124;-63
2021/11/03 17:32:07;;;;;;;6.87;2.58;;;;;;;;;;4390550;32;20144;-63
2021/11/03 17:34:33;;;;;;;7.45;2.20;;;;;;;;;;4392606;32;20098;-62
2021/11/03 17:36:59;;;;;;;4.00;2.22;;;;;;;;;;4406260;32;20118;-64
2021/11/03 17:39:25;;;;;;;4.47;2.53;;;;;;;;;;4407388;32;20132;-64
2021/11/03 17:41:55;;;;;;;6.30;2.20;;;;;;;;;;4404392;32;20483;-64
2021/11/03 17:44:27;;;;;;;2.03;1.70;;;;;;;;;;4378684;32;20121;-64
2021/11/03 17:46:55;;;;;;;5.50;2.17;;;;;;;;;;4390375;32;20109;-64
2021/11/03 17:49:26;;;;;;;5.10;1.87;;;;;;;;;;4392081;32;20514;-64
2021/11/03 17:51:52;;;;;;;5.07;1.92;;;;;;;;;;4391283;32;20588;-65
2021/11/03 17:54:18;;;;;;;4.53;2.30;;;;;;;;;;4391450;32;20137;-64
2021/11/03 17:56:45;;;;;;;4.30;2.65;;;;;;;;;;4404731;32;20105;-63
2021/11/03 17:59:16;;;;;;;7.60;2.30;;;;;;;;;;4405754;32;20115;-64
2021/11/03 18:01:43;;;;;;;3.53;2.00;;;;;;;;;;4405065;32;20120;-62
2021/11/03 18:04:10;;;;;;;4.80;2.92;;;;;;;;;;4406985;32;20121;-62
2021/11/03 18:06:36;;;;;;;5.65;2.28;;;;;;;;;;4406484;32;20116;-62
2021/11/03 18:09:04;;;;;;;7.32;2.12;;;;;;;;;;4406920;32;20198;-62
2021/11/03 18:11:31;;;;;;;3.70;2.20;;;;;;;;;;4405043;32;20101;-62
2021/11/03 18:14:03;;;;;;;4.75;2.25;;;;;;;;;;4406467;32;20455;-62
2021/11/03 18:16:30;;;;;;;5.53;2.20;;;;;;;;;;4389894;32;20117;-62
2021/11/03 18:18:57;;;;;;;10.77;2.03;;;;;;;;;;4391704;32;20213;-62
2021/11/03 18:21:23;;;;;;;6.25;1.77;;;;;;;;;;4388578;32;20073;-65
2021/11/03 18:23:50;;;;;;;7.12;2.05;;;;;;;;;;4406752;32;20197;-64
2021/11/03 18:26:23;;;;;;;7.28;1.87;;;;;;;;;;4396044;32;20085;-63
2021/11/03 18:28:51;;;;;;;3.65;1.80;;;;;;;;;;4386665;32;20093;-64
2021/11/03 18:31:25;;;;;;;6.47;2.30;;;;;;;;;;4397330;32;20120;-63
2021/11/03 18:33:52;;;;;;;2.53;1.80;;;;;;;;;;4402523;32;20267;-62
2021/11/03 18:36:18;;;;;;;4.55;1.92;;;;;;;;;;4396994;32;20097;-64
2021/11/03 18:38:45;;;;;;;4.10;2.05;;;;;;;;;;4411515;32;20104;-64
2021/11/03 18:41:18;;;;;;;6.87;1.90;;;;;;;;;;4398036;32;20116;-63
2021/11/03 18:43:45;;;;;;;8.02;1.73;;;;;;;;;;4393937;32;20097;-64
2021/11/03 18:46:11;;;;;;;2.75;1.90;;;;;;;;;;4389268;32;20093;-62
2021/11/03 18:48:37;;;;;;;6.57;1.90;;;;;;;;;;4407261;32;20501;-62
2021/11/03 18:51:31;;;;;;;4.62;1.90;;;;;;;;;;4399442;32;20519;-64
2021/11/03 18:53:57;;;;;;;6.55;1.80;;;;;;;;;;4384383;32;20500;-64
2021/11/03 18:56:23;;;;;;;4.50;2.33;;;;;;;;;;4383401;32;20090;-65
2021/11/03 18:58:49;;;;;;;4.47;2.00;;;;;;;;;;4392108;32;20089;-64
2021/11/03 19:01:16;;;;;;;4.32;1.70;;;;;;;;;;4391517;32;20093;-64
2021/11/03 19:03:43;;;;;;;4.25;1.98;;;;;;;;;;4392514;32;20612;-65
2021/11/03 19:06:41;;;;;;;4.95;2.72;;;;;;;;;;4402477;32;20217;-64
2021/11/03 19:09:35;;;;;;;5.35;1.90;;;;;;;;;;4397527;32;20108;-64
2021/11/03 19:12:03;;;;;;;6.22;1.90;;;;;;;;;;4391923;32;20542;-63
2021/11/03 19:14:32;;;;;;;9.98;4.82;;;;;;;;;;4393017;32;20125;-64
2021/11/03 19:16:59;;;;;;;3.60;2.37;;;;;;;;;;4403489;32;20101;-64
2021/11/03 19:19:25;;;;;;;4.57;2.17;;;;;;;;;;4393704;32;20210;-62
2021/11/03 19:21:53;;;;;;;4.78;2.10;;;;;;;;;;4407087;32;20109;-62
2021/11/03 19:24:46;;;;;;;7.28;2.67;;;;;;;;;;4394724;32;20519;-62
2021/11/03 19:27:12;;;;;;;3.85;1.75;;;;;;;;;;4407911;32;20116;-62
2021/11/03 19:29:38;;;;;;;7.87;2.28;;;;;;;;;;4407127;32;20101;-63
2021/11/03 19:32:06;;;;;;;5.50;1.70;;;;;;;;;;4406829;32;20210;-62
2021/11/03 19:34:32;;;;;;;7.00;1.87;;;;;;;;;;4408472;32;20170;-62
2021/11/03 19:36:57;;;;;;;2.80;1.65;;;;;;;;;;4406279;32;20121;-64
2021/11/03 19:39:29;;;;;;;9.75;1.95;;;;;;;;;;4406867;32;20464;-62
2021/11/03 19:41:56;;;;;;;7.45;2.28;;;;;;;;;;4391223;32;20089;-62
2021/11/03 19:44:23;;;;;;;2.33;1.77;;;;;;;;;;4392012;32;20574;-62
2021/11/03 19:46:50;;;;;;;5.78;2.03;;;;;;;;;;4391992;32;20192;-62
2021/11/03 19:49:16;;;;;;;8.85;2.37;;;;;;;;;;4402742;32;20098;-62
2021/11/03 19:51:42;;;;;;;8.57;1.90;;;;;;;;;;4389164;32;20658;-63
2021/11/03 19:54:25;;;;;;;7.60;2.00;;;;;;;;;;4393594;32;20120;-63
2021/11/03 19:56:52;;;;;;;12.75;2.40;;;;;;;;;;4400070;32;20101;-63
2021/11/03 19:59:18;;;;;;;4.18;1.65;;;;;;;;;;4408090;32;20196;-63
2021/11/03 20:01:45;;;;;;;4.72;1.90;;;;;;;;;;4395167;32;20121;-63
2021/11/03 20:04:11;;;;;;;3.87;2.72;;;;;;;;;;4391172;32;20117;-63
2021/11/03 20:06:39;;;;;;;4.53;1.70;;;;;;;;;;4392629;32;20121;-62
2021/11/03 20:09:06;;;;;;;4.57;2.25;;;;;;;;;;4379494;32;20214;-63
2021/11/03 20:11:32;;;;;;;6.68;2.10;;;;;;;;;;4393002;32;20128;-62
2021/11/03 20:13:59;;;;;;;5.43;2.53;;;;;;;;;;4393139;32;20089;-63
2021/11/03 20:16:28;;;;;;;6.22;2.50;;;;;;;;;;4392598;32;20116;-63
2021/11/03 20:19:00;;;;;;;3.58;1.80;;;;;;;;;;4391368;32;20121;-63
2021/11/03 20:21:35;;;;;;;6.18;3.05;;;;;;;;;;4401570;32;20139;-63
2021/11/03 20:24:02;;;;;;;1.90;1.70;;;;;;;;;;4391386;32;20090;-63
2021/11/03 20:26:29;;;;;;;2.53;1.85;;;;;;;;;;4392427;32;20200;-63
2021/11/03 20:28:55;;;;;;;4.62;2.03;;;;;;;;;;4392492;32;20673;-63
2021/11/03 20:31:23;;;;;;;7.97;1.90;;;;;;;;;;4392762;32;20150;-63